Time;durP1;ratioP1;P1;durP2;ratioP2;P2;SDS_P1;SDS_P2;PMS_P1;PMS_P2;Temp;Humidity;BMP_temperature;BMP_pressure;BME280_temperature;BME280_humidity;BME280_pressure;Samples;Min_cycle;Max_cycle;Signal;HPM_P1;HPM_P2
2021/05/05 00:00:35;;;;;;;4.15;0.80;;;;;;;8.27;74.08;98738.59;2200281;39;20052;-77
2021/05/05 00:02:06;;;;;;;4.63;1.20;;;;;;;8.23;74.25;98738.09;2225224;40;20052;-77
2021/05/05 00:03:38;;;;;;;3.67;1.13;;;;;;;8.27;74.38;98739.44;2227137;40;20045;-77
2021/05/05 00:05:10;;;;;;;3.15;0.90;;;;;;;8.28;74.37;98735.81;2226659;40;20536;-77
2021/05/05 00:06:41;;;;;;;4.47;1.10;;;;;;;8.27;74.43;98731.47;2162459;40;20429;-77
2021/05/05 00:08:13;;;;;;;6.20;1.10;;;;;;;8.25;74.61;98736.13;2220676;40;20033;-77
2021/05/05 00:09:46;;;;;;;3.40;0.70;;;;;;;8.28;74.56;98741.13;2215550;39;20041;-77
2021/05/05 00:11:17;;;;;;;3.63;0.98;;;;;;;8.28;74.36;98735.81;2215305;40;20341;-77
2021/05/05 00:12:49;;;;;;;4.05;0.88;;;;;;;8.31;74.53;98734.63;2205960;39;20040;-77
2021/05/05 00:14:22;;;;;;;3.13;0.90;;;;;;;8.27;74.53;98728.81;2215675;40;20030;-77
2021/05/05 00:15:52;;;;;;;5.47;0.90;;;;;;;8.27;74.73;98734.13;2211351;40;20030;-77
2021/05/05 00:17:24;;;;;;;2.55;0.80;;;;;;;8.24;74.75;98729.13;2227154;40;20698;-77
2021/05/05 00:18:54;;;;;;;3.15;0.85;;;;;;;8.18;74.71;98726.25;2210906;39;20799;-77
2021/05/05 00:20:26;;;;;;;5.22;1.02;;;;;;;8.13;74.97;98724.09;2225137;40;20020;-77
2021/05/05 00:21:57;;;;;;;6.03;0.98;;;;;;;8.11;75.17;98729.56;2232264;39;20048;-77
2021/05/05 00:23:30;;;;;;;5.32;0.82;;;;;;;8.12;75.31;98727.78;2232339;39;20036;-77
2021/05/05 00:25:01;;;;;;;3.97;1.10;;;;;;;8.11;75.41;98728.75;2233255;39;20065;-77
2021/05/05 00:26:32;;;;;;;3.80;1.13;;;;;;;8.10;75.68;98732.41;2235445;39;20058;-78
2021/05/05 00:28:04;;;;;;;6.55;0.90;;;;;;;8.09;75.69;98733.41;2232000;39;20032;-77
2021/05/05 00:29:35;;;;;;;3.97;0.98;;;;;;;8.09;75.73;98736.88;2236372;39;20082;-77
2021/05/05 00:31:06;;;;;;;3.33;0.88;;;;;;;8.10;75.73;98738.56;2227826;40;20037;-77
2021/05/05 00:32:38;;;;;;;3.45;0.85;;;;;;;8.08;75.81;98734.41;2232529;40;20213;-77
2021/05/05 00:34:10;;;;;;;4.32;0.90;;;;;;;8.07;75.79;98740.72;2189009;39;20298;-77
2021/05/05 00:35:41;;;;;;;6.78;0.70;;;;;;;8.04;76.05;98735.69;2229489;40;20063;-77
2021/05/05 00:37:12;;;;;;;4.28;0.85;;;;;;;8.00;76.02;98731.72;2231500;39;20066;-77
2021/05/05 00:38:46;;;;;;;2.83;0.90;;;;;;;7.97;76.02;98741.66;2232331;40;20045;-77
2021/05/05 00:40:17;;;;;;;5.03;0.90;;;;;;;7.96;75.85;98747.97;2231813;39;20064;-77
2021/05/05 00:41:49;;;;;;;5.28;0.93;;;;;;;7.97;75.98;98743.50;2235741;39;20405;-77
2021/05/05 00:43:20;;;;;;;2.75;0.75;;;;;;;7.96;75.74;98742.66;2234861;39;20050;-77
2021/05/05 00:44:57;;;;;;;4.32;1.35;;;;;;;7.97;75.77;98747.00;2234368;39;20029;-77
2021/05/05 00:46:28;;;;;;;3.47;0.80;;;;;;;7.98;75.71;98745.19;2224992;40;20044;-77
2021/05/05 00:48:00;;;;;;;4.50;1.00;;;;;;;7.97;75.74;98739.00;2232065;40;20028;-76
2021/05/05 00:49:31;;;;;;;6.55;1.90;;;;;;;8.04;75.29;98733.03;2234364;39;20044;-77
2021/05/05 00:51:05;;;;;;;3.80;0.90;;;;;;;8.04;75.33;98733.03;2231149;40;20086;-78
2021/05/05 00:52:37;;;;;;;3.42;0.80;;;;;;;8.01;74.81;98736.03;2231338;39;20629;-77
2021/05/05 00:54:10;;;;;;;2.65;0.70;;;;;;;8.01;74.68;98731.53;2234421;39;20028;-77
2021/05/05 00:55:41;;;;;;;4.05;0.80;;;;;;;8.02;74.65;98727.06;2221394;40;20140;-77
2021/05/05 00:57:14;;;;;;;3.22;0.75;;;;;;;8.00;74.60;98721.88;2230078;39;20580;-77
2021/05/05 00:58:45;;;;;;;3.22;0.88;;;;;;;8.01;74.36;98723.56;2237084;39;20055;-77
2021/05/05 01:00:19;;;;;;;3.22;0.70;;;;;;;8.02;74.10;98709.25;2234085;39;20028;-77
2021/05/05 01:01:51;;;;;;;4.30;0.95;;;;;;;8.04;74.33;98706.41;2236045;39;20129;-77
2021/05/05 01:03:22;;;;;;;5.00;0.75;;;;;;;8.05;74.20;98706.28;2235381;39;20032;-77
2021/05/05 01:04:54;;;;;;;5.82;0.88;;;;;;;8.06;74.24;98712.41;2230173;39;20414;-78
2021/05/05 01:06:25;;;;;;;3.95;0.95;;;;;;;8.08;74.30;98705.94;2226475;39;20040;-77
2021/05/05 01:07:56;;;;;;;4.82;0.82;;;;;;;8.13;74.38;98694.81;2233647;39;20041;-77
2021/05/05 01:09:28;;;;;;;3.80;1.17;;;;;;;8.16;74.54;98689.16;2209673;39;26594;-78
2021/05/05 01:11:01;;;;;;;3.83;1.17;;;;;;;8.15;74.79;98684.84;2227362;40;20390;-76
2021/05/05 01:12:33;;;;;;;5.53;1.02;;;;;;;8.19;74.88;98682.69;2185258;39;20056;-77
2021/05/05 01:14:04;;;;;;;3.30;1.13;;;;;;;8.24;74.91;98681.19;2205319;40;20022;-78
2021/05/05 01:15:36;;;;;;;2.92;1.33;;;;;;;8.27;74.85;98670.22;2210299;40;20472;-76
2021/05/05 01:17:08;;;;;;;3.65;1.38;;;;;;;8.32;75.01;98672.41;2229130;40;20106;-77
2021/05/05 01:18:39;;;;;;;3.78;0.95;;;;;;;8.33;75.04;98662.56;2231058;39;20052;-77
2021/05/05 01:20:11;;;;;;;3.58;0.98;;;;;;;8.36;74.86;98667.56;2237024;39;20622;-78
2021/05/05 01:21:43;;;;;;;4.60;1.10;;;;;;;8.39;74.76;98664.59;2226967;40;20059;-78
2021/05/05 01:23:15;;;;;;;5.65;1.42;;;;;;;8.36;74.29;98662.25;2231527;40;20032;-78
2021/05/05 01:24:46;;;;;;;4.88;1.13;;;;;;;8.34;74.56;98667.75;2219920;39;20035;-78
2021/05/05 01:26:18;;;;;;;4.53;1.08;;;;;;;8.31;74.39;98664.59;2236877;39;20388;-78
2021/05/05 01:27:49;;;;;;;5.47;1.33;;;;;;;8.26;74.62;98660.56;2231451;39;20048;-77
2021/05/05 01:29:20;;;;;;;4.88;1.10;;;;;;;8.26;74.71;98662.41;2229816;40;20040;-77
2021/05/05 01:30:52;;;;;;;5.35;1.42;;;;;;;8.22;74.49;98674.38;2187963;39;20053;-76
2021/05/05 01:32:25;;;;;;;5.55;1.10;;;;;;;8.18;74.67;98681.00;2232175;40;20031;-76
2021/05/05 01:33:57;;;;;;;2.20;0.75;;;;;;;8.16;74.89;98673.19;2188974;40;20048;-78
2021/05/05 01:35:30;;;;;;;5.47;1.23;;;;;;;8.17;74.99;98674.88;2227951;39;20037;-77
2021/05/05 01:37:03;;;;;;;3.90;0.90;;;;;;;8.10;74.81;98674.66;2226150;39;20061;-76
2021/05/05 01:38:34;;;;;;;2.78;0.77;;;;;;;8.09;75.02;98672.19;2234062;40;20404;-76
2021/05/05 01:40:06;;;;;;;2.20;0.70;;;;;;;8.12;75.11;98674.53;2231435;39;20125;-78
2021/05/05 01:41:38;;;;;;;3.08;0.75;;;;;;;8.12;74.63;98662.03;2234517;40;20080;-77
2021/05/05 01:43:10;;;;;;;3.03;0.88;;;;;;;8.20;75.00;98660.38;2216758;40;20501;-76
2021/05/05 01:44:41;;;;;;;5.20;1.40;;;;;;;8.22;74.74;98653.06;2226794;39;20059;-77
2021/05/05 01:46:13;;;;;;;4.13;1.00;;;;;;;8.21;74.59;98640.75;2217928;39;20205;-77
2021/05/05 01:47:44;;;;;;;3.97;1.08;;;;;;;8.16;74.70;98651.91;2239126;39;20019;-77
2021/05/05 01:49:19;;;;;;;4.28;1.13;;;;;;;8.14;74.73;98650.41;2235465;39;20059;-77
2021/05/05 01:50:51;;;;;;;5.45;1.35;;;;;;;8.15;74.75;98646.75;2235236;39;20055;-77
2021/05/05 01:52:23;;;;;;;5.80;1.73;;;;;;;8.22;74.69;98653.06;2192841;39;20429;-76
2021/05/05 01:53:54;;;;;;;4.03;1.10;;;;;;;8.26;74.85;98654.44;2230414;39;20024;-76
2021/05/05 01:55:26;;;;;;;4.90;1.30;;;;;;;8.25;75.05;98672.22;2224837;39;20141;-77
2021/05/05 01:57:22;;;;;;;6.07;1.42;;;;;;;8.21;75.10;98680.69;2240630;39;20056;-76
2021/05/05 01:58:53;;;;;;;3.22;0.90;;;;;;;8.15;75.19;98658.22;2236019;39;20052;-77
2021/05/05 02:00:27;;;;;;;4.07;1.13;;;;;;;8.21;75.10;98670.03;2226458;39;20043;-77
2021/05/05 02:01:58;;;;;;;3.80;0.85;;;;;;;8.20;75.16;98668.38;2237826;39;20028;-77
2021/05/05 02:03:29;;;;;;;3.28;1.08;;;;;;;8.19;75.04;98678.19;2238989;39;20047;-78
2021/05/05 02:05:01;;;;;;;3.85;0.95;;;;;;;8.16;75.04;98681.19;2239284;39;20059;-76
2021/05/05 02:06:32;;;;;;;3.97;0.90;;;;;;;8.16;74.99;98686.50;2240051;39;20052;-77
2021/05/05 02:08:05;;;;;;;4.50;1.20;;;;;;;8.10;75.02;98682.66;2226727;40;20421;-77
2021/05/05 02:09:36;;;;;;;6.38;1.05;;;;;;;8.05;75.38;98692.13;2216627;40;20041;-77
2021/05/05 02:11:08;;;;;;;3.45;1.23;;;;;;;8.02;75.65;98689.81;2237354;39;20050;-77
2021/05/05 02:12:40;;;;;;;3.78;1.10;;;;;;;7.96;75.64;98684.13;2236922;39;20048;-76
2021/05/05 02:14:11;;;;;;;3.65;0.90;;;;;;;7.96;75.83;98692.09;2240032;39;20036;-77
2021/05/05 02:15:43;;;;;;;2.85;1.00;;;;;;;7.98;76.00;98683.97;2226307;39;20489;-76
2021/05/05 02:17:15;;;;;;;4.85;1.10;;;;;;;7.95;76.07;98697.59;2240434;39;20043;-77
2021/05/05 02:18:46;;;;;;;2.72;0.77;;;;;;;7.93;76.09;98688.94;2238340;39;20358;-76
2021/05/05 02:20:21;;;;;;;3.53;1.05;;;;;;;7.92;76.34;98682.78;2237033;39;20130;-76
2021/05/05 02:21:52;;;;;;;7.65;1.63;;;;;;;7.92;76.40;98676.63;2234021;39;20039;-76
2021/05/05 02:23:24;;;;;;;3.03;0.82;;;;;;;7.91;76.91;98672.28;2241018;39;20062;-77
2021/05/05 02:24:55;;;;;;;5.60;1.10;;;;;;;7.90;76.74;98674.13;2233048;39;20051;-77
2021/05/05 02:26:26;;;;;;;3.97;1.10;;;;;;;7.89;76.84;98677.78;2228824;40;20094;-77
2021/05/05 02:27:58;;;;;;;4.50;1.20;;;;;;;7.95;77.08;98671.81;2221557;40;20057;-77
2021/05/05 02:29:30;;;;;;;4.20;1.20;;;;;;;8.00;76.86;98683.81;2222469;40;20029;-77
2021/05/05 02:31:01;;;;;;;6.25;1.38;;;;;;;8.03;76.89;98672.84;2221059;40;20048;-77
2021/05/05 02:32:33;;;;;;;5.45;1.27;;;;;;;7.97;77.02;98658.34;2225874;40;20041;-77
2021/05/05 02:34:04;;;;;;;4.50;1.40;;;;;;;8.02;77.29;98655.19;2221198;40;20091;-77
2021/05/05 02:35:35;;;;;;;5.32;1.88;;;;;;;8.03;77.25;98657.69;2228040;40;20328;-77
2021/05/05 02:37:08;;;;;;;5.10;1.50;;;;;;;7.95;77.36;98658.50;2230208;39;20040;-76
2021/05/05 02:38:40;;;;;;;5.82;1.75;;;;;;;7.97;77.41;98653.03;2230990;39;20060;-76
2021/05/05 02:40:14;;;;;;;4.63;1.50;;;;;;;8.01;77.45;98648.22;2226199;39;20032;-77
2021/05/05 02:41:45;;;;;;;5.88;2.05;;;;;;;8.03;77.43;98647.03;2231985;39;20114;-76
2021/05/05 02:43:17;;;;;;;5.65;1.40;;;;;;;8.06;77.31;98652.06;2227919;39;20028;-77
2021/05/05 02:44:49;;;;;;;4.38;1.30;;;;;;;8.07;77.38;98652.88;2231807;39;20036;-78
2021/05/05 02:46:21;;;;;;;4.75;1.27;;;;;;;8.14;77.32;98659.22;2208378;39;20032;-79
2021/05/05 02:47:52;;;;;;;3.75;1.10;;;;;;;8.15;77.30;98665.38;2233250;39;20047;-78
2021/05/05 02:49:24;;;;;;;4.35;1.30;;;;;;;8.17;77.08;98666.88;2229038;39;20363;-77
2021/05/05 02:50:55;;;;;;;4.55;1.85;;;;;;;8.16;77.33;98662.53;2231916;40;20614;-78
2021/05/05 02:52:27;;;;;;;4.72;1.40;;;;;;;8.11;77.29;98660.38;2224593;39;20036;-78
2021/05/05 02:53:58;;;;;;;7.65;2.20;;;;;;;8.10;77.37;98649.91;2217358;40;20036;-78
2021/05/05 02:55:31;;;;;;;7.78;2.10;;;;;;;8.03;77.12;98662.19;2222850;39;20103;-77
2021/05/05 02:57:04;;;;;;;5.75;1.70;;;;;;;7.95;77.45;98671.81;2231929;40;20044;-78
2021/05/05 02:58:35;;;;;;;4.93;1.58;;;;;;;7.92;77.37;98674.81;2223532;39;20056;-78
2021/05/05 03:00:08;;;;;;;5.63;1.60;;;;;;;7.91;77.79;98675.78;2232329;39;20039;-77
2021/05/05 03:01:39;;;;;;;7.63;2.03;;;;;;;7.91;77.57;98681.13;2230114;39;20037;-78
2021/05/05 03:03:19;;;;;;;5.20;1.83;;;;;;;7.89;77.63;98675.13;2232441;39;20447;-79
2021/05/05 03:04:51;;;;;;;7.63;1.77;;;;;;;7.90;77.66;98667.94;2230475;40;20056;-76
2021/05/05 03:06:22;;;;;;;6.47;1.48;;;;;;;7.89;77.50;98679.59;2214905;39;20032;-77
2021/05/05 03:07:53;;;;;;;8.55;1.23;;;;;;;7.87;77.52;98678.94;2232070;40;20103;-76
2021/05/05 03:09:28;;;;;;;8.85;1.27;;;;;;;7.85;77.40;98681.75;2226065;39;20048;-77
2021/05/05 03:11:00;;;;;;;3.85;1.00;;;;;;;7.88;77.53;98685.94;2233271;39;20125;-77
2021/05/05 03:12:32;;;;;;;7.28;1.30;;;;;;;7.88;77.72;98681.44;2232978;39;20347;-77
2021/05/05 03:14:04;;;;;;;4.97;1.10;;;;;;;7.89;77.58;98696.41;2233303;39;20527;-78
2021/05/05 03:15:35;;;;;;;4.63;1.10;;;;;;;7.88;77.58;98696.56;2230018;39;20048;-77
2021/05/05 03:17:07;;;;;;;4.85;1.10;;;;;;;7.87;77.60;98690.41;2230971;40;20343;-76
2021/05/05 03:18:38;;;;;;;4.70;0.90;;;;;;;7.90;77.75;98687.44;2230929;39;20035;-77
2021/05/05 03:20:12;;;;;;;6.68;1.30;;;;;;;7.94;77.81;98683.44;2229204;40;20040;-77
2021/05/05 03:21:43;;;;;;;7.75;1.20;;;;;;;7.90;77.66;98676.78;2233536;39;20068;-77
2021/05/05 03:23:14;;;;;;;6.03;1.42;;;;;;;7.87;77.76;98674.44;2234238;39;20036;-78
2021/05/05 03:24:47;;;;;;;5.25;0.85;;;;;;;7.92;77.94;98681.94;2232737;39;20040;-77
2021/05/05 03:26:18;;;;;;;4.30;1.08;;;;;;;7.90;77.83;98673.28;2237391;39;20055;-78
2021/05/05 03:27:49;;;;;;;7.72;1.00;;;;;;;7.87;77.69;98673.63;2207872;39;20046;-78
2021/05/05 03:29:21;;;;;;;5.18;1.33;;;;;;;7.87;78.09;98671.78;2245693;39;20104;-79
2021/05/05 03:30:52;;;;;;;5.57;1.23;;;;;;;7.88;77.87;98670.78;2198163;39;20104;-78
2021/05/05 03:32:23;;;;;;;5.10;1.42;;;;;;;7.90;78.06;98667.94;2236703;39;20036;-78
2021/05/05 03:33:55;;;;;;;5.65;1.52;;;;;;;7.93;77.95;98673.81;2178959;40;20314;-77
2021/05/05 03:35:26;;;;;;;4.38;1.42;;;;;;;7.93;77.71;98663.16;2234617;39;20036;-77
2021/05/05 03:36:57;;;;;;;4.15;1.20;;;;;;;7.87;77.91;98661.13;2232032;39;20056;-76
2021/05/05 03:38:30;;;;;;;4.10;0.90;;;;;;;7.84;77.95;98650.81;2234580;40;20048;-77
2021/05/05 03:40:04;;;;;;;4.45;1.48;;;;;;;7.83;77.90;98648.31;2202755;40;20047;-76
2021/05/05 03:41:35;;;;;;;5.00;1.13;;;;;;;7.83;77.60;98654.47;2236883;39;20341;-77
2021/05/05 03:43:06;;;;;;;3.90;1.00;;;;;;;7.85;77.96;98655.13;2245073;39;20065;-77
2021/05/05 03:44:37;;;;;;;4.38;1.25;;;;;;;7.84;77.99;98653.47;2246700;39;20044;-77
2021/05/05 03:46:09;;;;;;;5.85;1.00;;;;;;;7.86;78.13;98650.66;2242605;39;20319;-78
2021/05/05 03:47:40;;;;;;;6.00;1.48;;;;;;;7.85;78.13;98660.44;2250421;39;20342;-78
2021/05/05 03:49:12;;;;;;;4.20;1.05;;;;;;;7.85;78.03;98660.44;2249759;39;20039;-79
2021/05/05 03:50:43;;;;;;;5.38;1.20;;;;;;;7.83;78.04;98661.63;2251744;39;20020;-79
2021/05/05 03:52:14;;;;;;;5.38;1.10;;;;;;;7.80;78.04;98673.41;2248246;39;20474;-79
2021/05/05 03:53:45;;;;;;;6.97;1.33;;;;;;;7.80;78.14;98665.44;2249466;39;20108;-78
2021/05/05 03:55:18;;;;;;;4.95;0.90;;;;;;;7.83;78.06;98666.94;2248248;39;20039;-78
2021/05/05 03:56:49;;;;;;;4.40;1.02;;;;;;;7.82;78.16;98676.75;2250150;39;20031;-78
2021/05/05 03:58:20;;;;;;;5.97;1.08;;;;;;;7.84;78.13;98684.56;2245770;39;20095;-78
2021/05/05 03:59:51;;;;;;;9.35;1.30;;;;;;;7.83;78.16;98677.56;2250118;39;20059;-78
2021/05/05 04:01:23;;;;;;;6.00;1.17;;;;;;;7.81;78.32;98680.41;2245557;39;20415;-78
2021/05/05 04:02:54;;;;;;;5.22;1.25;;;;;;;7.81;78.10;98675.91;2243883;39;20351;-79
2021/05/05 04:04:25;;;;;;;6.75;1.10;;;;;;;7.82;78.09;98682.09;2242207;39;20052;-78
2021/05/05 04:05:56;;;;;;;6.47;1.38;;;;;;;7.79;78.03;98680.56;2250557;39;20038;-78
2021/05/05 04:07:27;;;;;;;4.65;1.23;;;;;;;7.78;78.19;98678.06;2249573;39;20051;-78
2021/05/05 04:08:58;;;;;;;4.53;1.77;;;;;;;7.77;78.38;98681.72;2251551;39;20035;-78
2021/05/05 04:10:31;;;;;;;4.95;1.05;;;;;;;7.76;78.43;98669.41;2250050;39;20058;-79
2021/05/05 04:12:03;;;;;;;4.43;1.20;;;;;;;7.75;78.35;98676.56;2249116;39;20532;-78
2021/05/05 04:13:34;;;;;;;4.65;1.60;;;;;;;7.77;78.22;98681.72;2250074;39;20115;-79
2021/05/05 04:15:06;;;;;;;8.00;1.70;;;;;;;7.78;78.28;98691.38;2251416;39;20027;-79
2021/05/05 04:16:37;;;;;;;5.88;1.30;;;;;;;7.79;78.26;98698.34;2245659;39;20050;-78
2021/05/05 04:18:09;;;;;;;3.63;1.10;;;;;;;7.81;78.27;98691.06;2244908;39;20325;-79
2021/05/05 04:19:41;;;;;;;4.93;1.25;;;;;;;7.80;78.08;98697.38;2210908;40;20063;-78
2021/05/05 04:21:12;;;;;;;4.80;1.45;;;;;;;7.80;78.07;98690.19;2237141;39;20336;-78
2021/05/05 04:22:43;;;;;;;3.75;1.23;;;;;;;7.85;77.98;98687.06;2235850;40;20669;-79
2021/05/05 04:24:15;;;;;;;6.15;2.13;;;;;;;7.82;77.89;98695.38;2228314;39;20043;-79
2021/05/05 04:25:47;;;;;;;6.15;1.50;;;;;;;7.83;77.98;98686.41;2224210;40;20109;-79
2021/05/05 04:27:19;;;;;;;6.07;1.58;;;;;;;7.87;77.95;98690.41;2224781;40;20037;-78
2021/05/05 04:28:50;;;;;;;4.03;1.10;;;;;;;7.95;77.93;98698.41;2246704;39;20031;-77
2021/05/05 04:30:22;;;;;;;4.75;1.20;;;;;;;7.92;77.91;98693.44;2246821;39;20024;-79
2021/05/05 04:31:54;;;;;;;6.80;1.42;;;;;;;7.89;77.78;98691.09;2250543;39;20307;-78
2021/05/05 04:33:26;;;;;;;5.88;1.15;;;;;;;7.89;77.68;98700.88;2244792;39;20072;-78
2021/05/05 04:34:57;;;;;;;5.45;1.27;;;;;;;7.86;77.82;98702.03;2250384;39;20391;-79
2021/05/05 04:36:29;;;;;;;5.97;1.17;;;;;;;7.86;77.74;98707.34;2247768;39;20074;-78
2021/05/05 04:38:00;;;;;;;5.88;1.52;;;;;;;7.88;77.67;98707.22;2244028;39;20323;-79
2021/05/05 04:39:31;;;;;;;5.50;1.45;;;;;;;7.87;77.41;98705.53;2244845;39;20318;-79
2021/05/05 04:41:04;;;;;;;5.00;1.58;;;;;;;7.85;77.31;98720.84;2251653;39;20034;-79
2021/05/05 04:42:36;;;;;;;4.50;1.20;;;;;;;7.82;77.46;98719.31;2255177;39;20100;-79
2021/05/05 04:44:07;;;;;;;5.95;1.58;;;;;;;7.80;77.16;98716.81;2256292;39;20090;-79
2021/05/05 04:45:39;;;;;;;5.47;1.50;;;;;;;7.81;77.30;98721.13;2255023;39;20506;-79
2021/05/05 04:47:10;;;;;;;4.25;1.50;;;;;;;7.83;77.28;98718.34;2256737;39;20035;-79
2021/05/05 04:48:41;;;;;;;6.15;1.52;;;;;;;7.84;77.24;98722.63;2248150;39;20050;-79
2021/05/05 04:50:13;;;;;;;5.05;1.50;;;;;;;7.84;77.46;98716.50;2250764;39;20043;-79
2021/05/05 04:51:44;;;;;;;6.05;1.27;;;;;;;7.84;77.26;98730.63;2247689;39;20067;-79
2021/05/05 04:53:16;;;;;;;9.45;1.75;;;;;;;7.82;77.28;98727.31;2250641;39;20043;-79
2021/05/05 04:54:47;;;;;;;6.40;1.20;;;;;;;7.82;77.04;98732.63;2248238;39;20435;-79
2021/05/05 04:56:20;;;;;;;4.40;1.38;;;;;;;7.84;77.11;98737.78;2250426;39;20035;-79
2021/05/05 04:57:51;;;;;;;5.43;1.45;;;;;;;7.86;76.91;98741.94;2250742;39;20031;-80
2021/05/05 04:59:23;;;;;;;4.82;1.30;;;;;;;7.85;76.90;98740.28;2251454;39;20353;-81
2021/05/05 05:00:54;;;;;;;6.10;1.60;;;;;;;7.83;76.61;98739.63;2249585;39;20054;-79
2021/05/05 05:02:26;;;;;;;4.35;1.50;;;;;;;7.87;76.78;98748.13;2250132;39;20050;-79
2021/05/05 05:03:57;;;;;;;9.63;1.95;;;;;;;7.87;76.62;98746.28;2247114;39;20675;-79
2021/05/05 05:05:28;;;;;;;6.65;1.33;;;;;;;7.91;76.64;98750.31;2248562;39;20036;-79
2021/05/05 05:06:59;;;;;;;5.32;1.48;;;;;;;7.93;76.43;98755.47;2250104;39;20047;-78
2021/05/05 05:08:31;;;;;;;7.00;1.92;;;;;;;7.94;76.31;98755.28;2252272;39;20044;-78
2021/05/05 05:10:04;;;;;;;6.57;1.65;;;;;;;7.93;76.31;98755.47;2251067;39;20050;-80
2021/05/05 05:11:36;;;;;;;6.10;1.42;;;;;;;7.92;76.24;98748.47;2252686;39;20077;-79
2021/05/05 05:13:07;;;;;;;7.80;1.95;;;;;;;7.93;76.20;98755.47;2242576;39;20035;-79
2021/05/05 05:14:38;;;;;;;16.23;1.92;;;;;;;7.93;75.99;98758.97;2250701;39;20034;-79
2021/05/05 05:16:10;;;;;;;3.95;1.38;;;;;;;7.94;76.12;98765.13;2255805;39;20046;-80
2021/05/05 05:17:42;;;;;;;4.88;1.60;;;;;;;7.98;75.79;98779.78;2257343;39;20279;-79
2021/05/05 05:19:13;;;;;;;3.88;1.15;;;;;;;7.96;75.47;98785.25;2256192;39;20050;-78
2021/05/05 05:20:44;;;;;;;7.75;1.30;;;;;;;7.95;75.49;98777.44;2257346;39;20038;-79
2021/05/05 05:22:16;;;;;;;7.68;1.88;;;;;;;8.01;75.37;98786.59;2251128;39;20046;-79
2021/05/05 05:23:47;;;;;;;4.55;1.40;;;;;;;7.97;75.45;98789.56;2251169;39;20034;-78
2021/05/05 05:25:18;;;;;;;8.68;1.83;;;;;;;8.02;75.15;98788.28;2250038;39;20055;-77
2021/05/05 05:26:51;;;;;;;6.60;1.77;;;;;;;8.04;75.22;98787.13;2251411;39;20054;-78
2021/05/05 05:28:22;;;;;;;8.07;1.70;;;;;;;8.04;74.93;98792.44;2250289;39;20087;-78
2021/05/05 05:29:53;;;;;;;7.55;1.60;;;;;;;8.06;74.75;98794.94;2251725;39;20028;-79
2021/05/05 05:31:24;;;;;;;6.60;1.63;;;;;;;8.10;74.58;98802.44;2249742;39;20108;-78
2021/05/05 05:32:56;;;;;;;5.88;1.95;;;;;;;8.19;74.46;98800.66;2250876;39;20403;-79
2021/05/05 05:34:27;;;;;;;5.70;1.30;;;;;;;8.21;74.33;98804.00;2250339;39;20047;-79
2021/05/05 05:35:59;;;;;;;7.22;1.98;;;;;;;8.21;74.20;98804.00;2251545;39;20093;-79
2021/05/05 05:37:30;;;;;;;5.32;1.50;;;;;;;8.23;74.12;98804.66;2243629;39;20058;-79
2021/05/05 05:39:01;;;;;;;5.35;1.45;;;;;;;8.18;73.94;98803.47;2246919;39;20035;-79
2021/05/05 05:40:33;;;;;;;6.90;1.73;;;;;;;8.20;73.68;98806.81;2250271;39;20318;-79
2021/05/05 05:42:06;;;;;;;7.30;1.45;;;;;;;8.20;73.64;98807.66;2251310;39;20095;-79
2021/05/05 05:43:37;;;;;;;5.30;1.52;;;;;;;8.22;73.58;98810.97;2249972;39;20364;-79
2021/05/05 05:45:09;;;;;;;4.47;1.60;;;;;;;8.21;73.62;98814.66;2249792;39;20034;-78
2021/05/05 05:46:41;;;;;;;6.93;1.80;;;;;;;8.20;73.35;98810.31;2251590;39;20012;-79
2021/05/05 05:48:12;;;;;;;3.90;1.23;;;;;;;8.20;73.61;98817.47;2250041;39;20462;-79
2021/05/05 05:49:44;;;;;;;6.25;1.92;;;;;;;8.20;73.39;98817.47;2251363;39;20035;-78
2021/05/05 05:51:15;;;;;;;4.18;1.30;;;;;;;8.19;73.61;98818.44;2250519;39;20065;-79
2021/05/05 05:52:47;;;;;;;5.78;1.83;;;;;;;8.18;73.70;98820.28;2251647;39;20300;-79
2021/05/05 05:54:19;;;;;;;39.13;4.00;;;;;;;8.17;73.74;98818.63;2250032;39;20112;-78
2021/05/05 05:55:51;;;;;;;6.00;1.75;;;;;;;8.17;73.69;98821.28;2251358;39;20283;-78
2021/05/05 05:57:24;;;;;;;6.93;1.30;;;;;;;8.15;73.52;98830.44;2236977;39;20042;-78
2021/05/05 05:58:56;;;;;;;6.70;1.98;;;;;;;8.14;73.27;98832.22;2242900;39;20599;-79
2021/05/05 06:00:27;;;;;;;6.95;1.70;;;;;;;8.14;73.54;98837.56;2241915;39;20422;-79
2021/05/05 06:01:58;;;;;;;8.18;1.60;;;;;;;8.13;73.20;98830.56;2251867;39;20036;-78
2021/05/05 06:03:30;;;;;;;6.47;1.65;;;;;;;8.21;73.13;98830.63;2250022;39;20047;-78
2021/05/05 06:05:01;;;;;;;6.25;2.00;;;;;;;8.28;73.26;98831.66;2250519;39;20046;-79
2021/05/05 06:06:33;;;;;;;5.00;1.48;;;;;;;8.38;73.01;98831.50;2249394;39;20461;-79
2021/05/05 06:08:05;;;;;;;13.38;2.70;;;;;;;8.41;72.90;98841.00;2250822;39;20020;-79
2021/05/05 06:09:36;;;;;;;7.78;2.90;;;;;;;8.48;72.98;98831.44;2238560;39;20032;-78
2021/05/05 06:11:07;;;;;;;9.15;3.20;;;;;;;8.52;72.71;98829.28;2250359;39;20031;-79
2021/05/05 06:12:40;;;;;;;6.53;1.73;;;;;;;8.61;72.74;98832.78;2241676;39;20124;-79
2021/05/05 06:14:13;;;;;;;6.38;1.65;;;;;;;8.71;72.39;98836.16;2244610;39;20556;-78
2021/05/05 06:15:45;;;;;;;8.77;1.77;;;;;;;8.78;72.24;98839.00;2243056;39;20050;-79
2021/05/05 06:17:16;;;;;;;5.07;1.30;;;;;;;8.79;71.63;98832.69;2245551;39;20093;-79
2021/05/05 06:18:47;;;;;;;3.92;1.58;;;;;;;8.80;71.42;98839.69;2249254;39;20438;-79
2021/05/05 06:20:18;;;;;;;5.47;1.20;;;;;;;8.79;70.95;98836.16;2250599;39;20043;-79
2021/05/05 06:21:49;;;;;;;9.27;1.70;;;;;;;8.82;70.01;98833.19;2249331;39;20059;-79
2021/05/05 06:23:21;;;;;;;4.57;1.50;;;;;;;8.82;70.08;98827.84;2250857;39;20035;-79
2021/05/05 06:24:52;;;;;;;7.75;1.70;;;;;;;8.87;70.16;98835.34;2248835;39;20061;-79
2021/05/05 06:26:23;;;;;;;6.20;1.70;;;;;;;8.83;69.96;98839.38;2249920;39;20057;-81
2021/05/05 06:27:55;;;;;;;4.47;1.50;;;;;;;8.88;70.01;98845.84;2249249;39;20054;-79
2021/05/05 06:29:26;;;;;;;7.28;1.45;;;;;;;8.86;69.67;98839.88;2250401;39;20038;-78
2021/05/05 06:30:58;;;;;;;6.20;1.73;;;;;;;8.80;69.58;98851.16;2249460;39;20043;-78
2021/05/05 06:32:29;;;;;;;6.10;1.25;;;;;;;8.81;69.72;98850.16;2249062;39;20032;-79
2021/05/05 06:34:01;;;;;;;7.70;1.50;;;;;;;8.82;69.42;98848.34;2245066;39;20054;-78
2021/05/05 06:35:32;;;;;;;7.22;2.47;;;;;;;8.82;69.60;98848.34;2250317;39;20035;-79
2021/05/05 06:37:03;;;;;;;7.25;1.70;;;;;;;8.85;68.52;98854.19;2248723;39;20058;-78
2021/05/05 06:38:36;;;;;;;11.65;2.58;;;;;;;8.86;68.47;98857.69;2249694;39;20035;-79
2021/05/05 06:40:09;;;;;;;15.10;1.92;;;;;;;8.89;68.47;98854.69;2247169;39;20046;-78
2021/05/05 06:41:41;;;;;;;9.63;1.95;;;;;;;8.93;68.56;98868.53;2249502;39;20023;-78
2021/05/05 06:43:13;;;;;;;4.70;1.27;;;;;;;8.97;68.39;98860.03;2241797;39;20050;-79
2021/05/05 06:44:44;;;;;;;6.03;1.88;;;;;;;9.10;68.59;98862.22;2243076;39;20040;-78
2021/05/05 06:46:15;;;;;;;6.78;2.13;;;;;;;9.19;68.08;98863.91;2249159;39;20054;-79
2021/05/05 06:47:47;;;;;;;7.13;1.65;;;;;;;9.30;67.69;98869.91;2244235;39;20031;-78
2021/05/05 06:49:18;;;;;;;8.77;2.00;;;;;;;9.34;67.26;98858.75;2248075;39;20042;-78
2021/05/05 06:50:49;;;;;;;8.15;1.88;;;;;;;9.32;65.86;98866.06;2249046;39;20043;-78
2021/05/05 06:52:21;;;;;;;11.30;1.67;;;;;;;9.33;65.66;98861.59;2247769;39;20062;-78
2021/05/05 06:53:52;;;;;;;9.63;2.00;;;;;;;9.38;65.71;98872.59;2249413;39;20027;-78
2021/05/05 06:55:23;;;;;;;9.27;1.90;;;;;;;9.47;65.30;98873.44;2248490;39;20046;-78
2021/05/05 06:56:55;;;;;;;6.32;1.80;;;;;;;9.48;64.26;98873.25;2250417;39;20272;-79
2021/05/05 06:58:27;;;;;;;9.15;1.83;;;;;;;9.45;63.44;98875.44;2248778;39;20646;-79
2021/05/05 06:59:58;;;;;;;7.10;1.60;;;;;;;9.48;63.64;98870.59;2250160;39;20031;-79
2021/05/05 07:01:30;;;;;;;7.95;1.77;;;;;;;9.55;63.89;98881.44;2242916;39;20446;-79
2021/05/05 07:03:01;;;;;;;8.60;2.17;;;;;;;9.62;63.60;98876.28;2243805;39;20483;-78
2021/05/05 07:04:32;;;;;;;9.45;2.17;;;;;;;9.57;63.29;98882.13;2241700;39;20054;-79
2021/05/05 07:06:04;;;;;;;10.30;2.17;;;;;;;9.52;62.93;98879.09;2242655;39;20303;-79
2021/05/05 07:07:36;;;;;;;11.02;2.65;;;;;;;9.52;61.52;98884.44;2241701;39;20054;-78
2021/05/05 07:09:08;;;;;;;9.60;2.00;;;;;;;9.58;60.46;98875.78;2243472;39;20043;-79
2021/05/05 07:10:39;;;;;;;11.23;2.58;;;;;;;9.62;60.00;98889.63;2239086;39;20296;-78
2021/05/05 07:12:10;;;;;;;9.88;1.83;;;;;;;9.63;59.35;98878.75;2241572;39;20035;-80
2021/05/05 07:13:42;;;;;;;7.78;2.20;;;;;;;9.79;59.43;98880.59;2242458;39;20627;-79
2021/05/05 07:15:14;;;;;;;10.10;2.30;;;;;;;9.92;59.85;98876.59;2240786;39;20061;-79
2021/05/05 07:16:45;;;;;;;7.80;2.13;;;;;;;9.98;59.91;98881.25;2242150;39;20093;-79